Elliott, Maryland
Current Conditions -  °F | °C
As of 1:03 PM on Monday 24 Nov 2014 (Local Time) from KCGE Reporting Station
Clear Clear  
Wind Chill: 72°   Ceiling: Unl
Heat Index: 72°   Visibility: 10mi
Dew Point: 57°   Wind: 15mph
Humidity: 60%   Direction: 190°S
Pressure: 29.67"   Gusts: 26mph
Location:  38.4254°N, 75.9037°W
Report Text: KCGE 241803Z AUTO 19013G23KT 10SM CLR 22/14 A2967 RMK AO1
Loading
Personal Weather Stations






























Interactive Weather Map New forecast layout! Learn more

10-Day Weather Forecast

Advertisements
Track Severe Weather on mobile